createdAt,value
2018-09-17T00:00:54.645Z,13.10
2018-09-17T00:03:22.082Z,13.20
2018-09-17T00:05:49.545Z,13.10
2018-09-17T00:08:16.996Z,13.20
2018-09-17T00:10:44.432Z,13.20
2018-09-17T00:13:11.857Z,13.20
2018-09-17T00:15:39.311Z,13.20
2018-09-17T00:18:06.842Z,13.20
2018-09-17T00:20:34.324Z,13.30
2018-09-17T00:23:01.742Z,13.30
2018-09-17T00:25:29.538Z,13.30
2018-09-17T00:27:57.011Z,13.30
2018-09-17T00:30:24.432Z,13.30
2018-09-17T00:32:51.889Z,13.30
2018-09-17T00:35:19.377Z,13.30
2018-09-17T00:37:46.859Z,13.20
2018-09-17T00:40:14.324Z,13.10
2018-09-17T00:42:41.802Z,13.10
2018-09-17T00:45:09.481Z,13.10
2018-09-17T00:47:36.889Z,13.20
2018-09-17T00:50:04.381Z,13.10
2018-09-17T00:52:31.813Z,13.00
2018-09-17T00:54:59.258Z,12.90
2018-09-17T00:57:26.685Z,12.90
2018-09-17T00:59:54.106Z,12.80
2018-09-17T01:02:21.537Z,12.80
2018-09-17T01:04:49.053Z,12.80
2018-09-17T01:07:16.475Z,12.90
2018-09-17T01:09:44.203Z,12.80
2018-09-17T01:12:13.553Z,12.80
2018-09-17T01:14:41.045Z,12.70
2018-09-17T01:17:08.428Z,12.80
2018-09-17T01:19:35.898Z,12.80
2018-09-17T01:22:03.409Z,12.80
2018-09-17T01:24:30.981Z,12.80
2018-09-17T01:26:58.408Z,12.80
2018-09-17T01:29:25.864Z,12.80
2018-09-17T01:31:53.322Z,12.80
2018-09-17T01:34:20.873Z,12.80
2018-09-17T01:36:48.268Z,12.80
2018-09-17T01:39:15.693Z,12.90
2018-09-17T01:41:43.150Z,12.90
2018-09-17T01:44:10.570Z,12.90
2018-09-17T01:46:37.990Z,12.80
2018-09-17T01:49:05.587Z,12.80
2018-09-17T01:51:33.017Z,12.80
2018-09-17T01:54:00.436Z,12.90
2018-09-17T01:56:27.913Z,12.90
2018-09-17T01:58:55.379Z,12.90
2018-09-17T02:01:22.778Z,13.00
2018-09-17T02:03:50.326Z,13.00
2018-09-17T02:06:17.792Z,13.00
2018-09-17T02:08:45.292Z,13.10
2018-09-17T02:11:12.858Z,13.20
2018-09-17T02:13:40.357Z,13.20
2018-09-17T02:16:07.887Z,13.20
2018-09-17T02:18:35.350Z,13.30
2018-09-17T02:21:02.876Z,13.20
2018-09-17T02:23:30.389Z,13.30
2018-09-17T02:25:57.833Z,13.30
2018-09-17T02:28:25.271Z,13.30
2018-09-17T02:30:52.752Z,13.20
2018-09-17T02:33:20.210Z,13.20
2018-09-17T02:35:47.648Z,13.20
2018-09-17T02:38:15.026Z,13.20
2018-09-17T02:40:42.561Z,13.20
2018-09-17T02:43:09.994Z,13.10
2018-09-17T02:45:37.413Z,13.10
2018-09-17T02:48:04.910Z,13.10
2018-09-17T02:50:32.309Z,13.30
2018-09-17T02:52:59.739Z,13.40
2018-09-17T02:55:27.175Z,13.50
2018-09-17T02:57:54.568Z,13.40
2018-09-17T03:00:22.063Z,13.40
2018-09-17T03:02:50.612Z,13.40
2018-09-17T03:05:18.020Z,13.40
2018-09-17T03:07:45.455Z,13.40
2018-09-17T03:10:12.868Z,13.40
2018-09-17T03:12:40.392Z,13.40
2018-09-17T03:15:19.423Z,13.50
2018-09-17T03:17:46.861Z,13.50
2018-09-17T03:20:14.253Z,13.60
2018-09-17T03:22:41.719Z,13.60
2018-09-17T03:25:09.150Z,13.70
2018-09-17T03:27:36.545Z,13.60
2018-09-17T03:30:04.094Z,13.60
2018-09-17T03:32:31.611Z,13.60
2018-09-17T03:34:59.000Z,13.60
2018-09-17T03:37:27.255Z,13.60
2018-09-17T03:39:54.801Z,13.60
2018-09-17T03:42:22.237Z,13.70
2018-09-17T03:44:49.668Z,13.70
2018-09-17T03:47:17.233Z,13.60
2018-09-17T03:49:44.692Z,13.60
2018-09-17T03:52:12.101Z,13.60
2018-09-17T03:54:39.714Z,13.70
2018-09-17T03:57:07.128Z,13.60
2018-09-17T03:59:34.529Z,13.60
2018-09-17T04:02:02.001Z,13.70
2018-09-17T04:04:29.440Z,13.70
2018-09-17T04:06:56.877Z,13.70
2018-09-17T04:09:24.297Z,13.70
2018-09-17T04:11:51.709Z,13.70
2018-09-17T04:14:19.229Z,13.70
2018-09-17T04:16:46.660Z,13.70
2018-09-17T04:19:14.041Z,13.70
2018-09-17T04:21:41.468Z,13.70
2018-09-17T04:24:08.849Z,13.70
2018-09-17T04:26:36.273Z,13.70
2018-09-17T04:29:03.966Z,13.80
2018-09-17T04:31:31.506Z,13.80
2018-09-17T04:33:58.911Z,13.80
2018-09-17T04:36:26.343Z,13.90
2018-09-17T04:38:53.837Z,13.80
2018-09-17T04:41:21.332Z,13.80
2018-09-17T04:43:48.756Z,13.60
2018-09-17T04:46:16.337Z,13.50
2018-09-17T04:48:43.750Z,13.50
2018-09-17T04:51:11.168Z,13.40
2018-09-17T04:53:38.611Z,13.40
2018-09-17T04:56:06.060Z,13.40
2018-09-17T04:58:33.500Z,13.40
2018-09-17T05:01:01.055Z,13.40
2018-09-17T05:03:28.494Z,13.50
2018-09-17T05:05:55.950Z,13.60
2018-09-17T05:08:23.417Z,13.70
2018-09-17T05:10:50.857Z,13.70
2018-09-17T05:13:18.481Z,13.80
2018-09-17T05:15:45.880Z,13.90
2018-09-17T05:18:13.362Z,14.00
2018-09-17T05:20:40.815Z,14.10
2018-09-17T05:23:08.344Z,14.20
2018-09-17T05:25:35.865Z,14.30
2018-09-17T05:28:03.285Z,14.40
2018-09-17T05:30:30.720Z,14.40
2018-09-17T05:32:58.104Z,14.40
2018-09-17T05:35:25.542Z,14.40
2018-09-17T05:37:52.980Z,14.30
2018-09-17T05:40:20.369Z,14.30
2018-09-17T05:42:47.833Z,14.40
2018-09-17T05:45:15.245Z,14.40
2018-09-17T05:47:42.676Z,14.40
2018-09-17T05:50:10.123Z,14.40
2018-09-17T05:52:37.542Z,14.40
2018-09-17T05:55:05.109Z,14.50
2018-09-17T05:57:32.554Z,14.50
2018-09-17T06:00:00.072Z,14.50
2018-09-17T06:02:27.523Z,14.50
2018-09-17T06:04:54.954Z,14.50
2018-09-17T06:07:22.359Z,14.60
2018-09-17T06:09:49.914Z,14.70
2018-09-17T06:12:17.681Z,14.90
2018-09-17T06:14:45.177Z,15.00
2018-09-17T06:17:12.513Z,15.10
2018-09-17T06:19:39.961Z,15.20
2018-09-17T06:22:07.405Z,15.40
2018-09-17T06:24:34.807Z,15.30
2018-09-17T06:27:02.212Z,15.40
2018-09-17T06:29:29.619Z,15.40
2018-09-17T06:31:57.052Z,15.30
2018-09-17T06:34:24.449Z,15.30
2018-09-17T06:36:51.833Z,15.20
2018-09-17T06:39:19.240Z,15.20
2018-09-17T06:41:46.623Z,15.20
2018-09-17T06:44:14.229Z,15.30
2018-09-17T06:46:41.648Z,15.30
2018-09-17T06:49:09.069Z,15.40
2018-09-17T06:51:36.475Z,15.40
2018-09-17T06:54:03.916Z,15.50
2018-09-17T06:56:31.346Z,15.50
2018-09-17T06:58:58.797Z,15.50
2018-09-17T07:01:26.211Z,15.60
2018-09-17T07:03:53.666Z,15.60
2018-09-17T07:06:21.095Z,15.60
2018-09-17T07:08:48.533Z,15.60
2018-09-17T07:11:15.970Z,15.60
2018-09-17T07:13:43.357Z,15.60
2018-09-17T07:16:10.758Z,15.60
2018-09-17T07:18:38.380Z,15.60
2018-09-17T07:21:05.933Z,15.70
2018-09-17T07:23:33.959Z,15.80
2018-09-17T07:26:01.372Z,16.00
2018-09-17T07:28:28.833Z,16.10
2018-09-17T07:30:56.232Z,16.30
2018-09-17T07:33:23.662Z,16.50
2018-09-17T07:35:51.048Z,16.50
2018-09-17T07:38:18.533Z,16.30
2018-09-17T07:40:45.923Z,16.20
2018-09-17T07:43:13.294Z,16.30
2018-09-17T07:45:40.706Z,16.30
2018-09-17T07:48:08.096Z,16.30
2018-09-17T07:50:35.569Z,16.30
2018-09-17T07:53:03.012Z,16.30
2018-09-17T07:55:30.424Z,16.40
2018-09-17T07:57:57.888Z,16.40
2018-09-17T08:00:25.277Z,16.30
2018-09-17T08:02:52.731Z,16.20
2018-09-17T08:05:20.112Z,16.10
2018-09-17T08:07:47.740Z,16.00
2018-09-17T08:10:22.848Z,15.90
2018-09-17T08:12:50.817Z,15.90
2018-09-17T08:15:18.354Z,16.00
2018-09-17T08:17:45.895Z,16.10
2018-09-17T08:20:13.282Z,16.10
2018-09-17T08:22:40.897Z,16.10
2018-09-17T08:25:08.984Z,16.10
2018-09-17T08:27:36.427Z,16.10
2018-09-17T08:30:03.991Z,16.10
2018-09-17T08:32:31.382Z,16.20
2018-09-17T08:34:58.888Z,16.30
2018-09-17T08:37:26.328Z,16.30
2018-09-17T08:39:53.748Z,16.20
2018-09-17T08:42:21.153Z,16.10
2018-09-17T08:44:48.596Z,16.20
2018-09-17T08:47:16.048Z,16.20
2018-09-17T08:49:43.464Z,16.20
2018-09-17T08:52:10.972Z,16.20
2018-09-17T08:54:44.232Z,16.20
2018-09-17T08:57:17.417Z,16.20
2018-09-17T08:59:50.594Z,16.30
2018-09-17T09:02:22.709Z,16.30
2018-09-17T09:04:53.113Z,16.40
2018-09-17T09:07:26.174Z,16.40
2018-09-17T09:09:58.172Z,16.50
2018-09-17T09:12:30.149Z,16.60
2018-09-17T09:15:02.130Z,16.80
2018-09-17T09:17:29.568Z,16.90
2018-09-17T09:19:56.950Z,17.00
2018-09-17T09:22:24.315Z,16.90
2018-09-17T09:24:51.757Z,16.90
2018-09-17T09:27:19.155Z,16.90
2018-09-17T09:29:46.597Z,16.90
2018-09-17T09:32:14.009Z,16.80
2018-09-17T09:34:41.438Z,16.70
2018-09-17T09:37:08.943Z,16.90
2018-09-17T09:39:36.370Z,17.00
2018-09-17T09:42:03.781Z,17.20
2018-09-17T09:44:31.192Z,17.20
2018-09-17T09:46:58.606Z,17.20
2018-09-17T09:49:26.017Z,17.20
2018-09-17T09:51:53.513Z,17.10
2018-09-17T09:54:20.980Z,17.10
2018-09-17T09:56:48.397Z,16.90
2018-09-17T09:59:15.806Z,16.90
2018-09-17T10:01:49.055Z,16.90
2018-09-17T10:04:21.060Z,16.90
2018-09-17T10:06:48.598Z,16.90
2018-09-17T10:09:21.794Z,16.90
2018-09-17T10:11:54.922Z,16.80
2018-09-17T10:14:27.947Z,16.90
2018-09-17T10:18:02.691Z,16.90
2018-09-17T10:20:30.086Z,16.80
2018-09-17T10:22:57.570Z,16.70
2018-09-17T10:25:25.016Z,16.70
2018-09-17T10:27:52.445Z,16.60
2018-09-17T10:30:19.820Z,16.60
2018-09-17T10:32:47.208Z,16.60
2018-09-17T10:35:14.653Z,16.70
2018-09-17T10:37:42.053Z,16.70
2018-09-17T10:40:09.493Z,16.80
2018-09-17T10:42:36.899Z,16.90
2018-09-17T10:45:04.419Z,17.00
2018-09-17T10:47:32.005Z,17.10
2018-09-17T10:49:59.394Z,17.10
2018-09-17T10:52:26.797Z,17.20
2018-09-17T10:54:54.217Z,17.30
2018-09-17T10:57:21.701Z,17.10
2018-09-17T10:59:49.080Z,16.90
2018-09-17T11:02:16.461Z,16.90
2018-09-17T11:04:43.841Z,16.90
2018-09-17T11:07:11.321Z,17.10
2018-09-17T11:09:38.692Z,17.40
2018-09-17T11:12:06.112Z,17.40
2018-09-17T11:14:33.574Z,17.40
2018-09-17T11:17:00.957Z,17.40
2018-09-17T11:19:28.465Z,17.30
2018-09-17T11:21:56.023Z,17.30
2018-09-17T11:24:23.444Z,17.20
2018-09-17T11:26:50.859Z,17.10
2018-09-17T11:29:18.333Z,17.00
2018-09-17T11:34:17.785Z,16.90
2018-09-17T11:36:45.176Z,16.90
2018-09-17T11:39:12.581Z,17.00
2018-09-17T11:41:40.749Z,17.00
2018-09-17T11:44:08.205Z,17.00
2018-09-17T11:46:35.595Z,17.10
2018-09-17T11:49:03.101Z,17.20
2018-09-17T11:51:30.594Z,17.20
2018-09-17T11:53:58.071Z,17.20
2018-09-17T11:56:25.470Z,17.10
2018-09-17T11:58:52.915Z,17.10
2018-09-17T12:01:26.044Z,17.10
2018-09-17T12:03:59.232Z,17.00
2018-09-17T12:06:32.298Z,17.00
2018-09-17T12:08:59.701Z,17.10
2018-09-17T12:11:27.116Z,17.20
2018-09-17T12:13:54.541Z,17.30
2018-09-17T12:16:21.962Z,17.50
2018-09-17T12:18:49.402Z,17.50
2018-09-17T12:21:16.893Z,17.50
2018-09-17T12:23:44.272Z,17.70
2018-09-17T12:26:11.663Z,17.80
2018-09-17T12:28:39.102Z,18.00
2018-09-17T12:31:06.481Z,18.10
2018-09-17T12:33:33.890Z,18.10
2018-09-17T12:36:01.352Z,18.20
2018-09-17T12:38:28.761Z,18.20
2018-09-17T12:40:56.201Z,18.00
2018-09-17T12:43:23.588Z,17.90
2018-09-17T12:45:51.046Z,17.60
2018-09-17T12:48:18.468Z,17.60
2018-09-17T12:50:45.872Z,17.70
2018-09-17T12:53:13.365Z,17.60
2018-09-17T12:55:40.829Z,17.60
2018-09-17T12:58:08.292Z,17.70
2018-09-17T13:00:35.759Z,17.80
2018-09-17T13:03:03.174Z,17.80
2018-09-17T13:05:30.557Z,17.80
2018-09-17T13:07:58.017Z,17.80
2018-09-17T13:10:25.402Z,17.90
2018-09-17T13:12:52.839Z,17.90
2018-09-17T13:15:20.386Z,17.90
2018-09-17T13:17:47.788Z,17.90
2018-09-17T13:20:15.188Z,17.90
2018-09-17T13:22:42.620Z,17.90
2018-09-17T13:25:10.087Z,17.90
2018-09-17T13:27:37.472Z,17.80
2018-09-17T13:30:05.387Z,17.70
2018-09-17T13:32:32.892Z,17.60
2018-09-17T13:35:00.303Z,17.70
2018-09-17T13:37:27.787Z,17.70
2018-09-17T13:39:55.173Z,17.70
2018-09-17T13:42:22.592Z,17.70
2018-09-17T13:44:50.064Z,17.60
2018-09-17T13:47:17.444Z,17.70
2018-09-17T13:49:44.898Z,17.70
2018-09-17T13:52:12.347Z,17.80
2018-09-17T13:54:39.737Z,17.80
2018-09-17T13:57:07.140Z,17.70
2018-09-17T13:59:34.554Z,17.70
2018-09-17T14:02:02.017Z,17.70
2018-09-17T14:04:29.491Z,17.60
2018-09-17T14:06:56.837Z,17.50
2018-09-17T14:09:24.270Z,17.60
2018-09-17T14:11:51.729Z,17.60
2018-09-17T14:14:19.132Z,17.50
2018-09-17T14:16:46.510Z,17.50
2018-09-17T14:19:13.977Z,17.50
2018-09-17T14:21:41.393Z,17.50
2018-09-17T14:24:08.823Z,17.60
2018-09-17T14:26:36.214Z,17.50
2018-09-17T14:29:03.605Z,17.50
2018-09-17T14:31:36.710Z,17.40
2018-09-17T14:34:04.146Z,17.40
2018-09-17T14:36:31.535Z,17.30
2018-09-17T14:38:58.965Z,17.40
2018-09-17T14:41:26.365Z,17.40
2018-09-17T14:43:53.973Z,17.40
2018-09-17T14:46:21.398Z,17.30
2018-09-17T14:48:48.708Z,17.30
2018-09-17T14:51:16.201Z,17.30
2018-09-17T14:53:43.583Z,17.20
2018-09-17T14:56:11.012Z,17.20
2018-09-17T14:58:38.442Z,17.20
2018-09-17T15:01:06.020Z,17.10
2018-09-17T15:03:33.393Z,17.10
2018-09-17T15:06:00.788Z,17.00
2018-09-17T15:08:28.377Z,16.80
2018-09-17T15:10:55.777Z,16.70
2018-09-17T15:13:23.180Z,16.70
2018-09-17T15:15:54.552Z,16.70
2018-09-17T15:18:22.000Z,16.70
2018-09-17T15:20:49.426Z,16.70
2018-09-17T15:23:16.905Z,16.80
2018-09-17T15:25:44.316Z,16.70
2018-09-17T15:28:11.870Z,16.70
2018-09-17T15:30:39.253Z,16.70
2018-09-17T15:33:06.856Z,16.60
2018-09-17T15:35:34.316Z,16.50
2018-09-17T15:38:01.810Z,16.60
2018-09-17T15:40:29.238Z,16.50
2018-09-17T15:42:56.770Z,16.60
2018-09-17T15:45:24.188Z,16.70
2018-09-17T15:47:51.674Z,16.70
2018-09-17T15:50:19.260Z,16.50
2018-09-17T15:52:46.546Z,16.50
2018-09-17T15:55:13.977Z,16.40
2018-09-17T15:57:41.414Z,16.40
2018-09-17T16:00:08.877Z,16.40
2018-09-17T16:02:36.373Z,16.30
2018-09-17T16:05:03.931Z,16.20
2018-09-17T16:07:31.307Z,16.10
2018-09-17T16:09:58.740Z,15.90
2018-09-17T16:12:26.398Z,15.70
2018-09-17T16:14:53.804Z,15.60
2018-09-17T16:17:21.235Z,15.60
2018-09-17T16:19:48.706Z,15.50
2018-09-17T16:22:16.156Z,15.40
2018-09-17T16:24:43.581Z,15.30
2018-09-17T16:27:10.981Z,15.10
2018-09-17T16:29:38.431Z,14.90
2018-09-17T16:32:05.905Z,14.80
2018-09-17T16:34:33.272Z,14.70
2018-09-17T16:37:00.726Z,14.60
2018-09-17T16:39:28.190Z,14.50
2018-09-17T16:41:55.785Z,14.30
2018-09-17T16:44:23.174Z,14.20
2018-09-17T16:46:50.652Z,14.10
2018-09-17T16:49:18.108Z,13.90
2018-09-17T16:51:45.683Z,13.70
2018-09-17T16:54:13.184Z,13.50
2018-09-17T16:56:40.635Z,13.30
2018-09-17T16:59:08.211Z,13.20
2018-09-17T17:01:35.667Z,13.10
2018-09-17T17:04:03.133Z,13.00
2018-09-17T17:06:30.657Z,12.90
2018-09-17T17:08:58.150Z,12.80
2018-09-17T17:11:25.559Z,12.80
2018-09-17T17:13:53.020Z,12.90
2018-09-17T17:16:20.495Z,12.90
2018-09-17T17:18:48.023Z,12.90
2018-09-17T17:21:15.369Z,13.00
2018-09-17T17:23:42.910Z,12.90
2018-09-17T17:26:10.466Z,12.80
2018-09-17T17:28:38.248Z,12.60
2018-09-17T17:31:05.709Z,12.30
2018-09-17T17:33:33.132Z,12.30
2018-09-17T17:36:00.585Z,12.30
2018-09-17T17:38:28.044Z,12.10
2018-09-17T17:40:55.462Z,11.90
2018-09-17T17:43:22.892Z,11.90
2018-09-17T17:45:50.318Z,12.00
2018-09-17T17:48:17.797Z,12.00
2018-09-17T17:50:45.292Z,12.10
2018-09-17T17:53:12.729Z,12.10
2018-09-17T17:55:40.184Z,12.10
2018-09-17T17:58:07.621Z,12.10
2018-09-17T18:00:35.149Z,12.00
2018-09-17T18:03:02.661Z,12.10
2018-09-17T18:05:30.303Z,12.10
2018-09-17T18:07:57.766Z,12.10
2018-09-17T18:10:25.182Z,12.10
2018-09-17T18:12:52.740Z,12.10
2018-09-17T18:15:20.301Z,12.10
2018-09-17T18:17:47.764Z,12.10
2018-09-17T18:20:15.275Z,12.10
2018-09-17T18:22:42.695Z,12.30
2018-09-17T18:25:10.270Z,12.40
2018-09-17T18:27:37.649Z,12.30
2018-09-17T18:30:05.481Z,12.40
2018-09-17T18:32:32.924Z,12.50
2018-09-17T18:35:00.724Z,12.40
2018-09-17T18:37:28.148Z,12.40
2018-09-17T18:39:55.620Z,12.50
2018-09-17T18:42:23.081Z,12.60
2018-09-17T18:44:50.564Z,12.80
2018-09-17T18:47:17.982Z,12.90
2018-09-17T18:49:45.401Z,13.10
2018-09-17T18:52:12.903Z,13.10
2018-09-17T18:54:40.418Z,12.90
2018-09-17T18:57:07.978Z,12.80
2018-09-17T18:59:35.588Z,12.80
2018-09-17T19:02:03.233Z,12.80
2018-09-17T19:04:30.637Z,12.90
2018-09-17T19:06:58.095Z,12.90
2018-09-17T19:09:31.154Z,12.80
2018-09-17T19:11:58.664Z,12.80
2018-09-17T19:14:31.708Z,12.80
2018-09-17T19:16:59.225Z,12.90
2018-09-17T19:19:26.662Z,12.80
2018-09-17T19:21:59.910Z,12.70
2018-09-17T19:24:27.203Z,12.50
2018-09-17T19:26:54.675Z,12.30
2018-09-17T19:29:22.133Z,12.30
2018-09-17T19:31:49.841Z,12.40
2018-09-17T19:34:17.284Z,12.50
2018-09-17T19:36:45.311Z,12.40
2018-09-17T19:39:18.561Z,12.40
2018-09-17T19:41:46.062Z,12.50
2018-09-17T19:44:13.617Z,12.50
2018-09-17T19:46:41.017Z,12.40
2018-09-17T19:49:08.735Z,12.40
2018-09-17T19:51:41.794Z,12.50
2018-09-17T19:54:09.516Z,12.60
2018-09-17T19:56:37.139Z,12.70
2018-09-17T19:59:10.447Z,12.60
2018-09-17T20:01:37.861Z,12.50
2018-09-17T20:04:10.874Z,12.50
2018-09-17T20:06:38.354Z,12.60
2018-09-17T20:09:07.764Z,12.60
2018-09-17T20:11:35.261Z,12.60
2018-09-17T20:14:02.770Z,12.60
2018-09-17T20:16:30.262Z,12.50
2018-09-17T20:18:57.709Z,12.50
2018-09-17T20:21:25.185Z,12.50
2018-09-17T20:23:52.636Z,12.50
2018-09-17T20:26:20.106Z,12.40
2018-09-17T20:28:47.514Z,12.40
2018-09-17T20:31:15.033Z,12.30
2018-09-17T20:33:42.465Z,12.30
2018-09-17T20:36:09.923Z,12.30
2018-09-17T20:38:37.459Z,12.20
2018-09-17T20:41:05.125Z,12.20
2018-09-17T20:43:32.530Z,12.20
2018-09-17T20:45:59.950Z,12.10
2018-09-17T20:48:27.493Z,12.30
2018-09-17T20:50:54.940Z,12.40
2018-09-17T20:53:22.366Z,12.50
2018-09-17T20:55:49.923Z,12.60
2018-09-17T20:58:17.381Z,12.60
2018-09-17T21:00:44.793Z,12.70
2018-09-17T21:03:12.305Z,12.70
2018-09-17T21:05:39.792Z,12.60
2018-09-17T21:08:07.268Z,12.60
2018-09-17T21:10:34.685Z,12.50
2018-09-17T21:13:02.237Z,12.50
2018-09-17T21:15:29.663Z,12.60
2018-09-17T21:17:57.070Z,12.70
2018-09-17T21:20:24.558Z,12.70
2018-09-17T21:22:51.977Z,12.50
2018-09-17T21:25:19.497Z,12.30
2018-09-17T21:27:46.883Z,12.20
2018-09-17T21:30:14.327Z,12.30
2018-09-17T21:32:41.797Z,12.30
2018-09-17T21:35:09.342Z,12.40
2018-09-17T21:37:36.770Z,12.30
2018-09-17T21:40:04.285Z,12.20
2018-09-17T21:42:31.745Z,12.10
2018-09-17T21:44:59.199Z,12.00
2018-09-17T21:47:26.617Z,12.10
2018-09-17T21:49:54.128Z,12.10
2018-09-17T21:52:21.524Z,12.10
2018-09-17T21:54:48.965Z,12.10
2018-09-17T21:57:16.410Z,12.00
2018-09-17T21:59:43.788Z,12.00
2018-09-17T22:02:11.255Z,11.90
2018-09-17T22:04:38.745Z,11.80
2018-09-17T22:07:06.212Z,11.80
2018-09-17T22:09:33.589Z,11.80
2018-09-17T22:12:01.012Z,11.70
2018-09-17T22:14:28.462Z,11.60
2018-09-17T22:16:55.881Z,11.60
2018-09-17T22:19:23.317Z,11.60
2018-09-17T22:21:50.765Z,11.60
2018-09-17T22:24:18.180Z,11.60
2018-09-17T22:26:45.630Z,11.50
2018-09-17T22:29:13.199Z,11.40
2018-09-17T22:31:40.594Z,11.40
2018-09-17T22:34:08.100Z,11.30
2018-09-17T22:36:35.506Z,11.30
2018-09-17T22:39:03.857Z,11.40
2018-09-17T22:41:31.304Z,11.50
2018-09-17T22:43:58.713Z,11.60
2018-09-17T22:46:26.174Z,11.70
2018-09-17T22:48:53.607Z,11.70
2018-09-17T22:51:21.278Z,11.80
2018-09-17T22:53:48.785Z,11.80
2018-09-17T22:56:16.232Z,11.80
2018-09-17T22:58:43.643Z,11.90
2018-09-17T23:01:11.102Z,11.80
2018-09-17T23:03:38.561Z,11.70
2018-09-17T23:06:06.089Z,11.70
2018-09-17T23:08:33.525Z,11.70
2018-09-17T23:11:00.970Z,11.70
2018-09-17T23:13:28.404Z,11.70
2018-09-17T23:15:55.833Z,11.70
2018-09-17T23:18:23.260Z,11.60
2018-09-17T23:20:50.725Z,11.70
2018-09-17T23:23:18.180Z,11.70
2018-09-17T23:25:45.587Z,11.80
2018-09-17T23:28:13.074Z,11.90
2018-09-17T23:30:40.491Z,12.00
2018-09-17T23:33:07.903Z,12.10
2018-09-17T23:35:35.345Z,12.20
2018-09-17T23:38:02.769Z,12.20
2018-09-17T23:40:30.188Z,12.20
2018-09-17T23:42:57.620Z,12.20
2018-09-17T23:45:25.040Z,12.20
2018-09-17T23:47:52.509Z,12.10
2018-09-17T23:50:19.952Z,12.10
2018-09-17T23:52:47.393Z,12.20
2018-09-17T23:55:14.864Z,12.20
2018-09-17T23:57:42.314Z,12.30
